createdAt,value
2023-04-03T00:01:13.055Z,102091.60
2023-04-03T00:03:48.857Z,102092.02
2023-04-03T00:06:22.869Z,102090.72
2023-04-03T00:08:58.232Z,102090.09
2023-04-03T00:11:34.602Z,102093.80
2023-04-03T00:14:10.346Z,102092.16
2023-04-03T00:16:46.454Z,102094.88
2023-04-03T00:19:26.931Z,102090.46
2023-04-03T00:22:04.720Z,102093.33
2023-04-03T00:24:41.030Z,102089.98
2023-04-03T00:27:18.177Z,102089.88
2023-04-03T00:29:52.960Z,102091.42
2023-04-03T00:32:29.002Z,102096.15
2023-04-03T00:35:05.778Z,102096.21
2023-04-03T00:37:41.620Z,102096.77
2023-04-03T00:40:20.312Z,102100.01
2023-04-03T00:43:00.896Z,102102.45
2023-04-03T00:45:41.476Z,102103.73
2023-04-03T00:48:22.380Z,102104.49
2023-04-03T00:50:59.316Z,102101.83
2023-04-03T00:53:38.904Z,102104.58
2023-04-03T00:56:19.730Z,102099.61
2023-04-03T00:58:59.446Z,102102.20
2023-04-03T01:01:37.105Z,102104.06
2023-04-03T01:04:33.756Z,102104.46
2023-04-03T01:07:14.075Z,102101.79
2023-04-03T01:09:50.247Z,102102.56
2023-04-03T01:12:28.663Z,102103.20
2023-04-03T01:15:07.192Z,102106.02
2023-04-03T01:17:44.467Z,102110.55
2023-04-03T01:20:50.232Z,102108.59
2023-04-03T01:23:49.068Z,102108.39
2023-04-03T01:26:24.259Z,102109.02
2023-04-03T01:29:10.521Z,102112.30
2023-04-03T01:32:15.019Z,102114.90
2023-04-03T01:34:50.146Z,102117.05
2023-04-03T01:37:24.978Z,102115.45
2023-04-03T01:39:59.430Z,102113.77
2023-04-03T01:42:36.585Z,102112.86
2023-04-03T01:45:14.742Z,102110.44
2023-04-03T01:47:52.821Z,102115.45
2023-04-03T01:50:30.834Z,102118.50
2023-04-03T01:53:05.892Z,102118.52
2023-04-03T01:55:40.839Z,102120.84
2023-04-03T01:58:16.527Z,102119.46
2023-04-03T02:00:51.096Z,102120.66
2023-04-03T02:03:27.360Z,102123.40
2023-04-03T02:06:02.827Z,102120.58
2023-04-03T02:08:39.577Z,102121.91
2023-04-03T02:11:13.249Z,102119.45
2023-04-03T02:13:53.374Z,102119.60
2023-04-03T02:16:27.487Z,102119.30
2023-04-03T02:19:03.709Z,102123.27
2023-04-03T02:21:39.366Z,102121.08
2023-04-03T02:24:14.607Z,102124.52
2023-04-03T02:26:50.345Z,102127.02
2023-04-03T02:29:27.068Z,102130.02
2023-04-03T02:32:03.284Z,102131.31
2023-04-03T02:34:46.043Z,102133.35
2023-04-03T02:37:22.306Z,102134.69
2023-04-03T02:40:00.054Z,102136.23
2023-04-03T02:42:37.330Z,102140.13
2023-04-03T02:45:16.565Z,102142.68
2023-04-03T02:47:51.096Z,102146.41
2023-04-03T02:50:26.873Z,102148.05
2023-04-03T02:53:03.120Z,102143.11
2023-04-03T02:55:37.398Z,102147.23
2023-04-03T02:58:13.629Z,102147.48
2023-04-03T03:00:52.419Z,102149.94
2023-04-03T03:03:26.763Z,102154.20
2023-04-03T03:06:11.316Z,102153.43
2023-04-03T03:08:49.268Z,102159.79
2023-04-03T03:11:24.259Z,102163.90
2023-04-03T03:14:00.170Z,102163.50
2023-04-03T03:16:34.947Z,102162.91
2023-04-03T03:19:09.023Z,102164.14
2023-04-03T03:21:45.969Z,102165.95
2023-04-03T03:24:22.579Z,102167.63
2023-04-03T03:26:58.414Z,102170.11
2023-04-03T03:29:36.037Z,102172.00
2023-04-03T03:32:11.279Z,102171.71
2023-04-03T03:34:47.190Z,102174.08
2023-04-03T03:37:22.469Z,102171.55
2023-04-03T03:39:58.272Z,102176.61
2023-04-03T03:42:32.243Z,102175.11
2023-04-03T03:45:10.814Z,102184.63
2023-04-03T03:47:47.925Z,102184.04
2023-04-03T03:50:26.827Z,102186.70
2023-04-03T03:53:02.777Z,102188.27
2023-04-03T03:55:37.538Z,102191.86
2023-04-03T03:58:13.124Z,102194.95
2023-04-03T04:00:47.889Z,102197.17
2023-04-03T04:03:22.721Z,102198.15
2023-04-03T04:05:58.684Z,102202.57
2023-04-03T04:08:36.257Z,102201.05
2023-04-03T04:11:14.857Z,102203.11
2023-04-03T04:13:52.300Z,102207.15
2023-04-03T04:16:27.923Z,102203.65
2023-04-03T04:19:12.953Z,102205.92
2023-04-03T04:21:49.027Z,102208.92
2023-04-03T04:24:24.234Z,102210.66
2023-04-03T04:27:02.467Z,102206.96
2023-04-03T04:29:38.528Z,102211.32
2023-04-03T04:32:16.267Z,102216.05
2023-04-03T04:34:51.518Z,102215.45
2023-04-03T04:37:32.260Z,102220.23
2023-04-03T04:40:07.456Z,102221.12
2023-04-03T04:42:43.276Z,102222.93
2023-04-03T04:45:18.951Z,102224.92
2023-04-03T04:47:57.623Z,102227.80
2023-04-03T04:50:33.286Z,102231.05
2023-04-03T04:53:10.205Z,102231.67
2023-04-03T04:55:52.577Z,102237.56
2023-04-03T04:58:30.211Z,102240.62
2023-04-03T05:01:08.850Z,102240.66
2023-04-03T05:03:49.632Z,102247.79
2023-04-03T05:06:26.986Z,102247.67
2023-04-03T05:09:03.173Z,102243.40
2023-04-03T05:11:42.802Z,102248.76
2023-04-03T05:14:21.188Z,102252.27
2023-04-03T05:16:57.907Z,102251.26
2023-04-03T05:19:37.082Z,102250.30
2023-04-03T05:22:19.262Z,102250.55
2023-04-03T05:24:57.533Z,102256.88
2023-04-03T05:27:34.792Z,102255.34
2023-04-03T05:30:15.305Z,102257.04
2023-04-03T05:32:53.613Z,102258.46
2023-04-03T05:35:50.000Z,102256.33
2023-04-03T05:38:30.619Z,102255.77
2023-04-03T05:41:08.515Z,102261.98
2023-04-03T05:43:47.651Z,102257.39
2023-04-03T05:46:28.605Z,102256.63
2023-04-03T05:49:06.567Z,102252.15
2023-04-03T05:51:45.983Z,102258.02
2023-04-03T05:54:52.090Z,102262.33
2023-04-03T05:57:32.885Z,102262.88
2023-04-03T06:00:16.972Z,102264.55
2023-04-03T06:02:57.874Z,102259.92
2023-04-03T06:05:37.832Z,102261.77
2023-04-03T06:08:14.756Z,102260.34
2023-04-03T06:10:52.156Z,102266.25
2023-04-03T06:13:27.544Z,102267.16
2023-04-03T06:16:01.320Z,102268.02
2023-04-03T06:18:35.769Z,102268.20
2023-04-03T06:21:11.697Z,102268.95
2023-04-03T06:23:46.747Z,102271.96
2023-04-03T06:26:22.737Z,102268.56
2023-04-03T06:28:58.132Z,102280.61
2023-04-03T06:31:32.736Z,102279.46
2023-04-03T06:34:09.929Z,102285.86
2023-04-03T06:36:46.244Z,102283.22
2023-04-03T06:39:23.493Z,102291.33
2023-04-03T06:41:58.364Z,102285.52
2023-04-03T06:44:44.031Z,102285.99
2023-04-03T06:47:18.860Z,102294.77
2023-04-03T06:49:54.683Z,102292.49
2023-04-03T06:52:29.221Z,102295.39
2023-04-03T06:55:04.948Z,102293.70
2023-04-03T06:57:42.954Z,102299.58
2023-04-03T07:00:24.061Z,102304.16
2023-04-03T07:02:59.544Z,102309.40
2023-04-03T07:05:35.300Z,102308.76
2023-04-03T07:08:11.323Z,102307.41
2023-04-03T07:10:46.166Z,102323.37
2023-04-03T07:13:21.962Z,102326.31
2023-04-03T07:15:57.917Z,102319.08
2023-04-03T07:18:32.835Z,102332.98
2023-04-03T07:21:09.479Z,102328.10
2023-04-03T07:23:45.326Z,102331.67
2023-04-03T07:26:24.278Z,102332.42
2023-04-03T07:28:59.599Z,102330.23
2023-04-03T07:31:36.496Z,102334.17
2023-04-03T07:34:12.290Z,102332.88
2023-04-03T07:36:49.307Z,102334.72
2023-04-03T07:39:28.096Z,102334.05
2023-04-03T07:42:04.676Z,102339.22
2023-04-03T07:44:42.060Z,102335.81
2023-04-03T07:47:19.168Z,102337.52
2023-04-03T07:49:54.353Z,102335.80
2023-04-03T07:52:30.893Z,102338.73
2023-04-03T07:55:07.903Z,102343.46
2023-04-03T07:57:46.375Z,102348.21
2023-04-03T08:00:24.790Z,102349.41
2023-04-03T08:03:00.565Z,102345.25
2023-04-03T08:05:39.315Z,102346.13
2023-04-03T08:08:18.626Z,102342.21
2023-04-03T08:11:02.994Z,102343.60
2023-04-03T08:13:39.977Z,102338.98
2023-04-03T08:16:21.349Z,102343.42
2023-04-03T08:18:56.310Z,102344.92
2023-04-03T08:21:34.218Z,102348.92
2023-04-03T08:24:11.929Z,102356.14
2023-04-03T08:26:47.757Z,102346.77
2023-04-03T08:29:22.554Z,102352.72
2023-04-03T08:31:58.823Z,102340.27
2023-04-03T08:34:36.064Z,102343.40
2023-04-03T08:37:10.805Z,102340.90
2023-04-03T08:39:46.342Z,102347.90
2023-04-03T08:42:45.277Z,102349.88
2023-04-03T08:45:25.541Z,102351.45
2023-04-03T08:48:08.654Z,102349.13
2023-04-03T09:33:16.515Z,102350.88
2023-04-03T09:35:50.549Z,102349.76
2023-04-03T09:38:24.550Z,102356.11
2023-04-03T09:41:11.760Z,102357.96
2023-04-03T09:43:57.936Z,102350.85
2023-04-03T09:46:37.832Z,102351.33
2023-04-03T09:49:14.591Z,102355.05
2023-04-03T09:51:46.257Z,102350.44
2023-04-03T09:54:44.726Z,102337.94
2023-04-03T09:57:16.847Z,102349.64
2023-04-03T10:00:00.639Z,102333.71
2023-04-03T10:02:39.514Z,102328.98
2023-04-03T10:05:32.805Z,102344.52
2023-04-03T10:08:27.179Z,102332.67
2023-04-03T10:11:17.350Z,102335.16
2023-04-03T10:14:05.002Z,102340.06
2023-04-03T10:16:57.721Z,102329.07
2023-04-03T11:01:05.149Z,102295.99
2023-04-03T11:03:42.735Z,102291.02
2023-04-03T11:06:17.649Z,102287.11
2023-04-03T11:13:26.103Z,102277.80
2023-04-03T11:15:59.523Z,102287.67
2023-04-03T11:18:38.724Z,102276.73
2023-04-03T11:21:17.702Z,102291.20
2023-04-03T11:23:50.796Z,102280.60
2023-04-03T11:26:25.930Z,102280.14
2023-04-03T11:29:05.859Z,102274.45
2023-04-03T11:32:03.869Z,102270.16
2023-04-03T11:34:44.784Z,102279.53
2023-04-03T11:37:33.414Z,102276.35
2023-04-03T11:40:21.483Z,102275.84
2023-04-03T11:43:27.191Z,102269.91
2023-04-03T11:46:07.924Z,102263.78
2023-04-03T14:23:04.007Z,102238.31
2023-04-03T14:25:39.096Z,102245.84
2023-04-03T14:28:21.678Z,102243.72
2023-04-03T14:30:58.717Z,102245.14
2023-04-03T14:33:37.778Z,102249.39
2023-04-03T14:36:20.865Z,102250.08
2023-04-03T14:38:56.634Z,102248.25
2023-04-03T14:41:32.506Z,102251.10
2023-04-03T14:44:24.792Z,102251.77
2023-04-03T14:46:58.504Z,102262.96
2023-04-03T14:49:34.248Z,102258.41
2023-04-03T14:52:08.673Z,102262.69
2023-04-03T14:54:46.646Z,102259.06
2023-04-03T14:57:25.104Z,102255.16
2023-04-03T14:59:59.964Z,102259.98
2023-04-03T15:02:42.131Z,102256.13
2023-04-03T15:05:22.933Z,102256.17
2023-04-03T15:08:01.683Z,102260.39
2023-04-03T15:10:40.861Z,102253.64
2023-04-03T15:13:20.849Z,102244.20
2023-04-03T15:16:01.158Z,102239.44
2023-04-03T15:18:43.171Z,102245.16
2023-04-03T15:21:20.137Z,102243.67
2023-04-03T15:23:55.485Z,102249.34
2023-04-03T15:26:34.480Z,102247.37
2023-04-03T15:29:10.981Z,102244.98
2023-04-03T15:31:46.685Z,102245.98
2023-04-03T15:34:23.090Z,102256.10
2023-04-03T15:37:01.367Z,102256.70
2023-04-03T15:39:41.904Z,102254.20
2023-04-03T15:42:16.674Z,102254.45
2023-04-03T15:44:57.377Z,102256.40
2023-04-03T15:47:33.152Z,102254.71
2023-04-03T15:50:11.048Z,102248.49
2023-04-03T15:52:48.344Z,102248.18
2023-04-03T15:55:27.324Z,102253.69
2023-04-03T15:58:02.636Z,102262.40
2023-04-03T16:00:38.676Z,102263.02
2023-04-03T16:03:18.188Z,102267.80
2023-04-03T16:05:53.850Z,102263.56
2023-04-03T16:08:28.385Z,102265.14
2023-04-03T16:11:07.325Z,102263.02
2023-04-03T16:13:43.550Z,102266.11
2023-04-03T16:16:20.292Z,102265.23
2023-04-03T16:19:00.295Z,102272.60
2023-04-03T16:21:39.012Z,102268.77
2023-04-03T16:24:18.347Z,102270.70
2023-04-03T16:26:57.009Z,102270.96
2023-04-03T16:29:44.110Z,102270.69
2023-04-03T16:32:21.246Z,102267.21
2023-04-03T16:34:58.618Z,102272.30
2023-04-03T16:37:34.762Z,102273.19
2023-04-03T16:40:13.816Z,102273.40
2023-04-03T16:42:50.871Z,102276.29
2023-04-03T16:45:26.750Z,102273.34
2023-04-03T16:48:01.460Z,102278.44
2023-04-03T16:50:35.136Z,102279.98
2023-04-03T16:53:10.806Z,102282.42
2023-04-03T16:55:48.166Z,102284.96
2023-04-03T16:58:25.513Z,102289.70
2023-04-03T17:01:11.287Z,102292.21
2023-04-03T17:03:47.284Z,102296.58
2023-04-03T17:06:29.077Z,102296.94
2023-04-03T17:09:04.721Z,102303.53
2023-04-03T17:11:40.763Z,102305.97
2023-04-03T17:14:17.356Z,102307.88
2023-04-03T17:16:55.330Z,102312.23
2023-04-03T17:19:30.046Z,102304.18
2023-04-03T17:22:07.916Z,102308.75
2023-04-03T17:24:45.969Z,102309.59
2023-04-03T17:27:23.809Z,102310.48
2023-04-03T17:29:58.999Z,102312.68
2023-04-03T17:32:40.018Z,102313.08
2023-04-03T17:35:14.315Z,102314.17
2023-04-03T17:37:54.064Z,102314.64
2023-04-03T17:40:30.859Z,102317.95
2023-04-03T17:43:09.163Z,102313.52
2023-04-03T17:45:54.490Z,102315.27
2023-04-03T17:48:28.506Z,102320.27
2023-04-03T17:51:08.370Z,102325.29
2023-04-03T17:53:52.070Z,102323.56
2023-04-03T17:56:29.520Z,102325.02
2023-04-03T17:59:08.260Z,102321.70
2023-04-03T18:01:44.920Z,102323.52
2023-04-03T18:04:22.028Z,102325.77
2023-04-03T18:07:02.323Z,102328.49
2023-04-03T18:09:48.949Z,102328.66
2023-04-03T18:12:25.226Z,102330.64
2023-04-03T18:15:05.819Z,102329.73
2023-04-03T18:17:42.171Z,102332.27
2023-04-03T18:20:19.401Z,102332.53
2023-04-03T18:22:58.815Z,102338.14
2023-04-03T18:25:36.008Z,102333.95
2023-04-03T18:28:09.813Z,102329.36
2023-04-03T18:30:48.471Z,102329.21
2023-04-03T18:33:25.877Z,102327.27
2023-04-03T18:36:01.394Z,102329.66
2023-04-03T18:38:37.191Z,102328.38
2023-04-03T18:41:13.344Z,102326.55
2023-04-03T18:43:49.175Z,102326.60
2023-04-03T18:46:25.282Z,102323.85
2023-04-03T18:49:04.044Z,102324.22
2023-04-03T18:51:39.530Z,102321.58
2023-04-03T18:54:16.443Z,102323.55
2023-04-03T18:56:52.597Z,102320.54
2023-04-03T18:59:28.566Z,102317.89
2023-04-03T19:02:04.122Z,102319.63
2023-04-03T19:04:39.121Z,102318.73
2023-04-03T19:07:16.270Z,102317.88
2023-04-03T19:09:51.731Z,102316.70
2023-04-03T19:12:27.175Z,102313.02
2023-04-03T19:15:07.420Z,102313.95
2023-04-03T19:17:42.172Z,102313.80
2023-04-03T19:20:27.694Z,102315.88
2023-04-03T19:23:09.290Z,102312.86
2023-04-03T19:25:47.972Z,102309.80
2023-04-03T19:28:27.479Z,102306.23
2023-04-03T19:31:05.657Z,102307.09
2023-04-03T19:33:44.300Z,102309.59
2023-04-03T19:36:21.744Z,102305.96
2023-04-03T19:38:58.354Z,102305.70
2023-04-03T19:41:47.835Z,102305.98
2023-04-03T19:44:23.399Z,102305.54
2023-04-03T19:47:06.641Z,102301.19
2023-04-03T19:49:43.218Z,102304.65
2023-04-03T19:52:25.257Z,102298.45
2023-04-03T19:55:00.958Z,102303.11
2023-04-03T19:57:42.945Z,102303.67
2023-04-03T20:00:21.863Z,102301.55
2023-04-03T20:03:03.561Z,102303.55
2023-04-03T20:05:39.685Z,102301.63
2023-04-03T20:08:19.203Z,102300.06
2023-04-03T20:11:08.525Z,102296.75
2023-04-03T20:13:45.522Z,102293.55
2023-04-03T20:16:22.896Z,102299.02
2023-04-03T20:19:00.441Z,102295.67
2023-04-03T20:21:43.323Z,102294.55
2023-04-03T20:24:19.716Z,102294.41
2023-04-03T20:27:03.758Z,102290.86
2023-04-03T20:29:41.491Z,102295.27
2023-04-03T20:32:16.850Z,102292.04
2023-04-03T20:35:03.088Z,102294.88
2023-04-03T20:37:41.507Z,102294.98
2023-04-03T20:40:20.651Z,102294.08
2023-04-03T20:42:56.297Z,102292.41
2023-04-03T20:45:34.036Z,102290.70
2023-04-03T20:48:09.672Z,102295.13
2023-04-03T20:50:49.813Z,102293.89
2023-04-03T20:53:24.423Z,102288.35
2023-04-03T20:56:33.663Z,102284.94
2023-04-03T20:59:10.433Z,102291.86
2023-04-03T21:01:47.995Z,102294.77
2023-04-03T21:04:31.084Z,102289.02
2023-04-03T21:07:41.724Z,102293.08
2023-04-03T21:10:49.993Z,102295.05
2023-04-03T21:13:58.283Z,102292.15
2023-04-03T21:16:29.879Z,102295.96
2023-04-03T21:19:17.494Z,102292.20
2023-04-03T21:21:53.324Z,102292.61
2023-04-03T21:24:28.630Z,102293.32
2023-04-03T21:27:06.035Z,102296.83
2023-04-03T21:29:42.866Z,102294.29
2023-04-03T21:32:17.723Z,102293.02
2023-04-03T21:34:54.880Z,102290.54
2023-04-03T21:37:30.390Z,102289.08
2023-04-03T21:40:06.669Z,102287.58
2023-04-03T21:42:44.845Z,102286.80
2023-04-03T21:45:21.459Z,102285.63
2023-04-03T21:47:55.229Z,102286.34
2023-04-03T21:50:29.836Z,102286.83
2023-04-03T21:53:04.917Z,102286.11
2023-04-03T21:55:40.139Z,102287.86
2023-04-03T21:58:14.692Z,102283.38
2023-04-03T22:00:51.996Z,102285.60
2023-04-03T22:03:28.334Z,102285.33
2023-04-03T22:06:04.130Z,102281.62
2023-04-03T22:08:42.978Z,102286.52
2023-04-03T22:11:18.719Z,102286.57
2023-04-03T22:13:56.609Z,102289.52
2023-04-03T22:16:30.966Z,102287.27
2023-04-03T22:19:06.297Z,102284.27
2023-04-03T22:21:46.735Z,102280.24
2023-04-03T22:24:21.317Z,102275.96
2023-04-03T22:26:58.821Z,102273.73
2023-04-03T22:29:34.517Z,102273.52
2023-04-03T22:32:12.523Z,102273.80
2023-04-03T22:34:51.638Z,102275.44
2023-04-03T22:37:28.426Z,102278.49
2023-04-03T22:40:03.316Z,102274.48
2023-04-03T22:42:41.348Z,102275.55
2023-04-03T22:45:20.930Z,102275.45
2023-04-03T22:47:59.062Z,102275.96
2023-04-03T22:50:37.443Z,102272.02
2023-04-03T22:53:13.563Z,102270.38
2023-04-03T22:56:00.856Z,102269.09
2023-04-03T22:58:37.139Z,102271.17
2023-04-03T23:01:19.182Z,102271.69
2023-04-03T23:03:54.251Z,102271.64
2023-04-03T23:06:30.738Z,102268.41
2023-04-03T23:09:04.591Z,102267.92
2023-04-03T23:11:40.410Z,102268.54
2023-04-03T23:14:15.610Z,102266.02
2023-04-03T23:16:52.241Z,102265.13
2023-04-03T23:19:27.047Z,102269.10
2023-04-03T23:22:02.010Z,102268.45
2023-04-03T23:24:41.651Z,102270.27
2023-04-03T23:27:17.072Z,102266.21
2023-04-03T23:29:51.130Z,102263.05
2023-04-03T23:32:24.967Z,102261.93
2023-04-03T23:35:01.267Z,102259.71
2023-04-03T23:37:38.390Z,102258.77
2023-04-03T23:40:16.946Z,102254.89
2023-04-03T23:42:51.226Z,102253.38
2023-04-03T23:45:28.404Z,102254.87
2023-04-03T23:48:04.584Z,102249.80
2023-04-03T23:50:42.836Z,102252.84
2023-04-03T23:53:20.066Z,102252.23
2023-04-03T23:55:55.742Z,102249.22
2023-04-03T23:58:31.341Z,102244.59
